Sacul, Texas
Current Conditions -  °F | °C
As of 10:15 PM on Wednesday 17 Dec 2014 (Local Time) from KJSO Reporting Station
Haze Haze  
Wind Chill: 43°   Ceiling: 100
Heat Index: 45°   Visibility: 4mi
Dew Point: 45°   Wind: 5mph
Humidity: 98%   Direction: 50°NE
Pressure: 30.18"   Gusts: NA
Location:  31.82°N, 94.92°W
Report Text: KJSO 180415Z AUTO 05004KT 4SM BR BKN001 OVC022 07/07 A3018 RMK AO2 T00730070
Loading
Personal Weather Stations






























Interactive Weather Map New forecast layout! Learn more

10-Day Weather Forecast

Advertisements
Track Severe Weather on mobile